createdAt,value
2018-12-20T00:02:07.365Z,7.20
2018-12-20T00:04:34.955Z,7.20
2018-12-20T00:07:02.786Z,7.20
2018-12-20T00:09:30.509Z,7.20
2018-12-20T00:11:58.616Z,7.20
2018-12-20T00:14:29.839Z,7.20
2018-12-20T00:17:01.512Z,7.20
2018-12-20T00:19:29.180Z,7.20
2018-12-20T00:21:56.897Z,7.20
2018-12-20T00:24:24.509Z,7.20
2018-12-20T00:26:52.030Z,7.20
2018-12-20T00:29:19.469Z,7.30
2018-12-20T00:31:47.006Z,7.30
2018-12-20T00:34:14.749Z,7.20
2018-12-20T00:36:42.305Z,7.30
2018-12-20T00:39:09.746Z,7.20
2018-12-20T00:41:37.521Z,7.20
2018-12-20T00:44:05.027Z,7.20
2018-12-20T00:46:32.618Z,7.20
2018-12-20T00:49:00.127Z,7.20
2018-12-20T00:51:27.755Z,7.20
2018-12-20T00:53:55.317Z,7.20
2018-12-20T00:56:22.828Z,7.30
2018-12-20T00:58:50.438Z,7.30
2018-12-20T01:01:17.846Z,7.30
2018-12-20T01:03:45.513Z,7.30
2018-12-20T01:06:13.237Z,7.30
2018-12-20T01:08:40.973Z,7.30
2018-12-20T01:11:08.508Z,7.30
2018-12-20T01:13:36.146Z,7.30
2018-12-20T01:16:03.602Z,7.30
2018-12-20T01:18:31.209Z,7.30
2018-12-20T01:20:58.737Z,7.30
2018-12-20T01:23:26.223Z,7.30
2018-12-20T01:25:53.680Z,7.20
2018-12-20T01:28:21.363Z,7.20
2018-12-20T01:30:49.169Z,7.20
2018-12-20T01:33:16.660Z,7.30
2018-12-20T01:35:45.485Z,7.30
2018-12-20T01:38:13.047Z,7.30
2018-12-20T01:40:40.571Z,7.30
2018-12-20T01:43:08.214Z,7.30
2018-12-20T01:45:35.909Z,7.30
2018-12-20T01:48:03.559Z,7.30
2018-12-20T01:50:31.150Z,7.30
2018-12-20T01:52:58.569Z,7.40
2018-12-20T01:55:26.183Z,7.30
2018-12-20T01:57:53.941Z,7.40
2018-12-20T02:00:21.477Z,7.40
2018-12-20T02:02:49.682Z,7.50
2018-12-20T02:05:17.385Z,7.50
2018-12-20T02:07:45.223Z,7.50
2018-12-20T02:10:13.015Z,7.50
2018-12-20T02:12:40.514Z,7.60
2018-12-20T02:15:08.093Z,7.60
2018-12-20T02:17:35.625Z,7.60
2018-12-20T02:20:03.886Z,7.70
2018-12-20T02:22:31.791Z,7.70
2018-12-20T02:24:59.376Z,7.70
2018-12-20T02:27:27.079Z,7.70
2018-12-20T02:29:54.512Z,7.70
2018-12-20T02:32:22.369Z,7.70
2018-12-20T02:34:50.226Z,7.70
2018-12-20T02:37:17.993Z,7.70
2018-12-20T02:39:45.647Z,7.70
2018-12-20T02:42:13.362Z,7.70
2018-12-20T02:44:40.970Z,7.70
2018-12-20T02:47:08.646Z,7.70
2018-12-20T02:49:36.384Z,7.70
2018-12-20T02:52:04.178Z,7.80
2018-12-20T02:54:31.762Z,7.70
2018-12-20T02:56:59.339Z,7.70
2018-12-20T02:59:27.009Z,7.80
2018-12-20T03:01:54.535Z,7.80
2018-12-20T03:04:22.468Z,7.80
2018-12-20T03:06:51.431Z,7.80
2018-12-20T03:09:19.220Z,7.70
2018-12-20T03:11:46.949Z,7.70
2018-12-20T03:14:14.508Z,7.80
2018-12-20T03:16:42.006Z,7.70
2018-12-20T03:19:09.685Z,7.70
2018-12-20T03:21:37.393Z,7.70
2018-12-20T03:24:05.100Z,7.70
2018-12-20T03:26:32.747Z,7.60
2018-12-20T03:29:00.250Z,7.60
2018-12-20T03:31:27.969Z,7.70
2018-12-20T03:33:55.605Z,7.60
2018-12-20T03:36:23.983Z,7.60
2018-12-20T03:38:51.769Z,7.60
2018-12-20T03:41:19.258Z,7.60
2018-12-20T03:43:46.913Z,7.60
2018-12-20T03:46:14.483Z,7.60
2018-12-20T03:48:42.257Z,7.60
2018-12-20T03:51:10.528Z,7.60
2018-12-20T03:53:38.142Z,7.50
2018-12-20T03:56:06.091Z,7.50
2018-12-20T03:58:33.620Z,7.50
2018-12-20T04:01:01.111Z,7.50
2018-12-20T04:03:28.754Z,7.50
2018-12-20T04:05:56.452Z,7.50
2018-12-20T04:08:24.143Z,7.50
2018-12-20T04:10:51.731Z,7.50
2018-12-20T04:13:19.418Z,7.50
2018-12-20T04:15:47.217Z,7.50
2018-12-20T04:18:14.769Z,7.50
2018-12-20T04:20:42.443Z,7.50
2018-12-20T04:23:09.897Z,7.50
2018-12-20T04:25:37.638Z,7.50
2018-12-20T04:28:05.196Z,7.50
2018-12-20T04:30:32.688Z,7.50
2018-12-20T04:33:00.371Z,7.50
2018-12-20T04:35:28.082Z,7.50
2018-12-20T04:37:55.526Z,7.40
2018-12-20T04:40:23.064Z,7.50
2018-12-20T04:42:50.832Z,7.50
2018-12-20T04:45:18.647Z,7.50
2018-12-20T04:47:46.229Z,7.50
2018-12-20T04:50:13.817Z,7.50
2018-12-20T04:52:42.324Z,7.50
2018-12-20T04:55:09.814Z,7.50
2018-12-20T04:57:37.535Z,7.50
2018-12-20T05:00:05.770Z,7.50
2018-12-20T05:02:33.527Z,7.50
2018-12-20T05:05:01.053Z,7.50
2018-12-20T05:07:28.537Z,7.50
2018-12-20T05:09:55.945Z,7.50
2018-12-20T05:12:23.570Z,7.50
2018-12-20T05:14:51.273Z,7.50
2018-12-20T05:17:18.735Z,7.40
2018-12-20T05:19:46.452Z,7.40
2018-12-20T05:22:13.958Z,7.40
2018-12-20T05:24:42.055Z,7.40
2018-12-20T05:27:09.647Z,7.40
2018-12-20T05:29:37.319Z,7.40
2018-12-20T05:32:05.040Z,7.40
2018-12-20T05:34:32.749Z,7.40
2018-12-20T05:37:00.473Z,7.40
2018-12-20T05:39:28.013Z,7.30
2018-12-20T05:41:55.697Z,7.40
2018-12-20T05:44:23.281Z,7.40
2018-12-20T05:46:51.158Z,7.40
2018-12-20T05:49:18.652Z,7.40
2018-12-20T05:51:46.363Z,7.40
2018-12-20T05:54:14.090Z,7.40
2018-12-20T05:56:41.671Z,7.40
2018-12-20T05:59:09.458Z,7.40
2018-12-20T06:01:37.179Z,7.40
2018-12-20T06:04:05.025Z,7.40
2018-12-20T06:06:32.804Z,7.40
2018-12-20T06:09:00.351Z,7.40
2018-12-20T06:11:28.130Z,7.40
2018-12-20T06:13:55.804Z,7.40
2018-12-20T06:16:23.486Z,7.40
2018-12-20T06:18:51.304Z,7.40
2018-12-20T06:21:19.150Z,7.40
2018-12-20T06:23:46.672Z,7.40
2018-12-20T06:26:14.210Z,7.40
2018-12-20T06:28:41.734Z,7.40
2018-12-20T06:31:09.241Z,7.50
2018-12-20T06:33:36.985Z,7.40
2018-12-20T06:36:04.562Z,7.40
2018-12-20T06:38:32.162Z,7.40
2018-12-20T06:40:59.611Z,7.40
2018-12-20T06:43:27.386Z,7.40
2018-12-20T06:45:54.888Z,7.50
2018-12-20T06:48:22.372Z,7.40
2018-12-20T06:50:49.860Z,7.40
2018-12-20T06:53:17.291Z,7.40
2018-12-20T06:55:44.875Z,7.40
2018-12-20T06:58:12.460Z,7.40
2018-12-20T07:00:40.444Z,7.40
2018-12-20T07:03:07.869Z,7.40
2018-12-20T07:05:35.356Z,7.40
2018-12-20T07:08:02.808Z,7.40
2018-12-20T07:10:30.327Z,7.40
2018-12-20T07:12:57.904Z,7.40
2018-12-20T07:15:25.419Z,7.40
2018-12-20T07:17:53.067Z,7.40
2018-12-20T07:20:20.566Z,7.40
2018-12-20T07:22:48.146Z,7.40
2018-12-20T07:25:16.622Z,7.40
2018-12-20T07:27:44.168Z,7.40
2018-12-20T07:30:12.121Z,7.40
2018-12-20T07:32:39.786Z,7.40
2018-12-20T07:35:07.417Z,7.40
2018-12-20T07:37:35.138Z,7.40
2018-12-20T07:40:03.435Z,7.40
2018-12-20T07:42:30.910Z,7.40
2018-12-20T07:44:58.392Z,7.40
2018-12-20T07:47:26.309Z,7.40
2018-12-20T07:49:53.808Z,7.40
2018-12-20T07:52:21.279Z,7.30
2018-12-20T07:54:48.773Z,7.40
2018-12-20T07:57:16.331Z,7.30
2018-12-20T07:59:43.835Z,7.30
2018-12-20T08:02:11.261Z,7.30
2018-12-20T08:04:38.790Z,7.30
2018-12-20T08:07:06.226Z,7.30
2018-12-20T08:09:33.693Z,7.30
2018-12-20T08:12:01.292Z,7.30
2018-12-20T08:14:28.830Z,7.30
2018-12-20T08:16:56.390Z,7.30
2018-12-20T08:19:23.828Z,7.30
2018-12-20T08:21:51.433Z,7.40
2018-12-20T08:24:18.891Z,7.30
2018-12-20T08:26:46.403Z,7.30
2018-12-20T08:29:13.860Z,7.30
2018-12-20T08:31:41.355Z,7.40
2018-12-20T08:34:08.886Z,7.40
2018-12-20T08:36:36.415Z,7.40
2018-12-20T08:39:06.821Z,7.50
2018-12-20T08:41:34.377Z,7.50
2018-12-20T08:44:02.271Z,7.50
2018-12-20T08:46:31.689Z,7.50
2018-12-20T08:48:59.376Z,7.50
2018-12-20T08:51:26.875Z,7.50
2018-12-20T08:53:54.301Z,7.50
2018-12-20T08:56:21.974Z,7.60
2018-12-20T08:58:49.484Z,7.60
2018-12-20T09:01:16.914Z,7.60
2018-12-20T09:03:44.378Z,7.60
2018-12-20T09:06:11.892Z,7.60
2018-12-20T09:08:39.294Z,7.60
2018-12-20T09:11:06.806Z,7.60
2018-12-20T09:13:34.264Z,7.60
2018-12-20T09:16:01.762Z,7.70
2018-12-20T09:18:29.269Z,7.70
2018-12-20T09:20:56.794Z,7.70
2018-12-20T09:23:24.345Z,7.70
2018-12-20T09:25:51.851Z,7.70
2018-12-20T09:28:19.912Z,7.70
2018-12-20T09:30:47.485Z,7.80
2018-12-20T09:33:14.931Z,7.80
2018-12-20T09:35:42.458Z,7.80
2018-12-20T09:38:09.974Z,7.90
2018-12-20T09:40:37.591Z,7.90
2018-12-20T09:43:05.306Z,7.80
2018-12-20T09:45:32.809Z,8.00
2018-12-20T09:48:05.603Z,8.00
2018-12-20T09:50:33.777Z,7.90
2018-12-20T09:53:01.243Z,7.90
2018-12-20T09:55:28.798Z,7.90
2018-12-20T09:57:56.475Z,7.90
2018-12-20T10:00:24.027Z,7.90
2018-12-20T10:02:51.550Z,7.90
2018-12-20T10:05:19.123Z,7.90
2018-12-20T10:07:46.621Z,8.10
2018-12-20T10:10:14.050Z,8.00
2018-12-20T10:12:41.480Z,8.00
2018-12-20T10:15:09.152Z,8.00
2018-12-20T10:17:36.670Z,8.00
2018-12-20T10:20:06.533Z,8.00
2018-12-20T10:22:33.961Z,8.00
2018-12-20T10:25:01.500Z,8.00
2018-12-20T10:27:31.529Z,8.00
2018-12-20T10:29:58.503Z,8.00
2018-12-20T10:32:25.997Z,8.10
2018-12-20T10:34:53.461Z,8.00
2018-12-20T10:37:20.940Z,8.10
2018-12-20T10:39:48.410Z,8.10
2018-12-20T10:42:15.987Z,8.10
2018-12-20T10:44:43.406Z,8.10
2018-12-20T10:47:29.109Z,8.10
2018-12-20T10:49:55.232Z,8.10
2018-12-20T10:52:22.626Z,8.10
2018-12-20T10:54:50.088Z,8.20
2018-12-20T10:57:17.619Z,8.10
2018-12-20T10:59:45.091Z,8.20
2018-12-20T11:02:18.286Z,8.20
2018-12-20T11:04:51.482Z,8.20
2018-12-20T11:07:24.652Z,8.20
2018-12-20T11:09:57.895Z,8.20
2018-12-20T11:12:25.650Z,8.20
2018-12-20T11:14:54.057Z,8.20
2018-12-20T11:17:21.534Z,8.20
2018-12-20T11:19:48.972Z,8.20
2018-12-20T11:22:16.414Z,8.20
2018-12-20T11:24:43.918Z,8.20
2018-12-20T11:27:11.488Z,8.20
2018-12-20T11:29:38.964Z,8.20
2018-12-20T11:32:06.518Z,8.20
2018-12-20T11:34:34.071Z,8.20
2018-12-20T11:37:01.572Z,8.20
2018-12-20T11:39:29.039Z,8.20
2018-12-20T11:41:56.464Z,8.20
2018-12-20T11:44:23.932Z,8.40
2018-12-20T11:46:51.423Z,8.30
2018-12-20T11:49:18.863Z,8.30
2018-12-20T11:51:46.342Z,8.30
2018-12-20T11:54:13.915Z,8.30
2018-12-20T11:56:41.478Z,8.30
2018-12-20T11:59:08.996Z,8.30
2018-12-20T12:01:36.510Z,8.30
2018-12-20T12:04:04.090Z,8.30
2018-12-20T12:06:31.594Z,8.30
2018-12-20T12:08:59.148Z,8.30
2018-12-20T12:14:00.483Z,8.30
2018-12-20T12:16:27.914Z,8.30
2018-12-20T12:18:55.491Z,8.30
2018-12-20T12:21:23.137Z,8.40
2018-12-20T12:23:50.706Z,8.30
2018-12-20T12:26:18.184Z,8.30
2018-12-20T12:28:45.596Z,8.30
2018-12-20T12:31:13.142Z,8.30
2018-12-20T12:33:40.624Z,8.20
2018-12-20T12:36:08.190Z,8.20
2018-12-20T12:38:35.646Z,8.20
2018-12-20T12:41:03.100Z,8.20
2018-12-20T12:43:30.649Z,8.20
2018-12-20T12:45:58.140Z,8.20
2018-12-20T12:48:25.596Z,8.20
2018-12-20T12:50:53.075Z,8.30
2018-12-20T12:53:20.573Z,8.40
2018-12-20T12:55:48.240Z,8.50
2018-12-20T12:58:15.724Z,8.60
2018-12-20T13:00:43.147Z,8.70
2018-12-20T13:03:10.613Z,8.70
2018-12-20T13:05:38.197Z,8.80
2018-12-20T13:08:05.662Z,8.80
2018-12-20T13:10:33.157Z,8.80
2018-12-20T13:13:00.771Z,8.80
2018-12-20T13:15:28.356Z,8.80
2018-12-20T13:17:55.920Z,8.80
2018-12-20T13:20:23.599Z,8.80
2018-12-20T13:22:51.153Z,8.80
2018-12-20T13:25:18.752Z,8.80
2018-12-20T13:27:46.243Z,8.80
2018-12-20T13:30:13.740Z,8.80
2018-12-20T13:32:41.352Z,8.80
2018-12-20T13:35:08.986Z,8.80
2018-12-20T13:37:36.549Z,8.80
2018-12-20T13:40:04.903Z,8.80
2018-12-20T13:42:32.486Z,8.80
2018-12-20T13:44:59.965Z,8.80
2018-12-20T13:47:27.431Z,8.80
2018-12-20T13:49:54.968Z,8.80
2018-12-20T13:52:22.508Z,8.80
2018-12-20T13:54:49.989Z,8.80
2018-12-20T13:57:17.459Z,8.80
2018-12-20T13:59:44.941Z,8.80
2018-12-20T14:02:12.462Z,8.80
2018-12-20T14:04:39.965Z,8.90
2018-12-20T14:07:07.608Z,8.80
2018-12-20T14:09:35.104Z,8.80
2018-12-20T14:12:02.652Z,8.80
2018-12-20T14:14:30.141Z,8.80
2018-12-20T14:16:57.923Z,8.70
2018-12-20T14:19:25.656Z,8.70
2018-12-20T14:21:53.075Z,8.70
2018-12-20T14:24:20.671Z,8.70
2018-12-20T14:26:48.137Z,8.70
2018-12-20T14:29:15.703Z,8.70
2018-12-20T14:31:43.246Z,8.70
2018-12-20T14:34:10.713Z,8.70
2018-12-20T14:36:39.286Z,8.70
2018-12-20T14:39:06.926Z,8.70
2018-12-20T14:41:34.527Z,8.70
2018-12-20T14:44:01.943Z,8.70
2018-12-20T14:46:29.554Z,8.70
2018-12-20T14:48:57.100Z,8.70
2018-12-20T14:51:24.552Z,8.70
2018-12-20T14:53:52.005Z,8.70
2018-12-20T14:56:19.426Z,8.60
2018-12-20T14:58:46.956Z,8.60
2018-12-20T15:01:14.568Z,8.60
2018-12-20T15:03:42.115Z,8.60
2018-12-20T15:06:09.534Z,8.60
2018-12-20T15:08:38.177Z,8.60
2018-12-20T15:11:05.661Z,8.50
2018-12-20T15:13:33.185Z,8.50
2018-12-20T15:16:00.639Z,8.50
2018-12-20T15:18:28.116Z,8.50
2018-12-20T15:20:55.653Z,8.50
2018-12-20T15:23:23.255Z,8.50
2018-12-20T15:25:50.774Z,8.40
2018-12-20T15:28:18.233Z,8.40
2018-12-20T15:30:45.702Z,8.40
2018-12-20T15:33:13.208Z,8.30
2018-12-20T15:35:40.653Z,8.30
2018-12-20T15:38:08.229Z,8.30
2018-12-20T15:40:35.702Z,8.20
2018-12-20T15:43:03.201Z,8.20
2018-12-20T15:45:30.647Z,8.20
2018-12-20T15:47:58.350Z,8.20
2018-12-20T15:50:25.900Z,8.10
2018-12-20T15:52:53.374Z,8.20
2018-12-20T15:55:20.936Z,8.10
2018-12-20T15:57:48.604Z,8.10
2018-12-20T16:00:16.287Z,8.10
2018-12-20T16:02:43.731Z,8.10
2018-12-20T16:05:11.199Z,8.10
2018-12-20T16:07:38.756Z,8.10
2018-12-20T16:10:08.314Z,8.10
2018-12-20T16:12:35.976Z,8.00
2018-12-20T16:15:04.195Z,8.00
2018-12-20T16:17:31.868Z,8.00
2018-12-20T16:19:59.280Z,8.00
2018-12-20T16:22:26.805Z,7.90
2018-12-20T16:24:54.243Z,7.90
2018-12-20T16:27:21.706Z,7.90
2018-12-20T16:29:49.177Z,7.90
2018-12-20T16:32:16.712Z,7.90
2018-12-20T16:34:44.191Z,7.90
2018-12-20T16:37:11.702Z,7.80
2018-12-20T16:39:39.331Z,7.80
2018-12-20T16:42:06.718Z,7.80
2018-12-20T16:44:34.295Z,7.80
2018-12-20T16:47:01.729Z,7.80
2018-12-20T16:49:29.240Z,7.80
2018-12-20T16:51:56.724Z,7.80
2018-12-20T16:54:24.187Z,7.70
2018-12-20T16:56:51.823Z,7.70
2018-12-20T16:59:19.314Z,7.70
2018-12-20T17:01:46.828Z,7.70
2018-12-20T17:04:14.323Z,7.70
2018-12-20T17:06:42.240Z,7.70
2018-12-20T17:09:09.806Z,7.70
2018-12-20T17:11:37.486Z,7.70
2018-12-20T17:14:05.063Z,7.70
2018-12-20T17:16:35.420Z,7.70
2018-12-20T17:19:03.050Z,7.70
2018-12-20T17:21:30.687Z,7.70
2018-12-20T17:23:58.152Z,7.70
2018-12-20T17:26:25.620Z,7.70
2018-12-20T17:28:53.178Z,7.70
2018-12-20T17:31:21.806Z,7.70
2018-12-20T17:33:49.264Z,7.60
2018-12-20T17:36:17.121Z,7.70
2018-12-20T17:38:44.715Z,7.70
2018-12-20T17:41:12.309Z,7.60
2018-12-20T17:43:39.932Z,7.60
2018-12-20T17:46:07.494Z,7.60
2018-12-20T17:48:34.947Z,7.60
2018-12-20T17:51:02.592Z,7.60
2018-12-20T17:53:30.124Z,7.60
2018-12-20T17:55:57.702Z,7.60
2018-12-20T17:58:25.280Z,7.60
2018-12-20T18:00:52.855Z,7.50
2018-12-20T18:03:20.384Z,7.50
2018-12-20T18:05:50.860Z,7.50
2018-12-20T18:08:18.389Z,7.50
2018-12-20T18:10:45.955Z,7.50
2018-12-20T18:13:14.546Z,7.50
2018-12-20T18:15:42.074Z,7.50
2018-12-20T18:18:09.542Z,7.50
2018-12-20T18:20:37.097Z,7.50
2018-12-20T18:23:04.982Z,7.50
2018-12-20T18:25:32.634Z,7.40
2018-12-20T18:28:00.242Z,7.40
2018-12-20T18:30:27.843Z,7.40
2018-12-20T18:32:55.384Z,7.40
2018-12-20T18:35:22.883Z,7.40
2018-12-20T18:37:50.412Z,7.40
2018-12-20T18:40:17.916Z,7.40
2018-12-20T18:42:45.347Z,7.40
2018-12-20T18:45:12.915Z,7.40
2018-12-20T18:47:40.566Z,7.40
2018-12-20T18:50:09.487Z,7.40
2018-12-20T18:52:36.993Z,7.50
2018-12-20T18:55:04.584Z,7.50
2018-12-20T18:57:32.364Z,7.50
2018-12-20T18:59:59.868Z,7.50
2018-12-20T19:02:27.400Z,7.50
2018-12-20T19:04:54.833Z,7.50
2018-12-20T19:07:22.384Z,7.50
2018-12-20T19:09:50.039Z,7.50
2018-12-20T19:12:17.611Z,7.50
2018-12-20T19:14:45.145Z,7.50
2018-12-20T19:17:12.739Z,7.50
2018-12-20T19:19:40.230Z,7.60
2018-12-20T19:22:07.777Z,7.60
2018-12-20T19:24:35.283Z,7.60
2018-12-20T19:27:02.819Z,7.60
2018-12-20T19:29:30.246Z,7.60
2018-12-20T19:32:04.657Z,7.60
2018-12-20T19:34:32.134Z,7.60
2018-12-20T19:36:59.619Z,7.60
2018-12-20T19:39:28.029Z,7.60
2018-12-20T19:42:01.116Z,7.60
2018-12-20T19:44:28.872Z,7.60
2018-12-20T19:46:56.323Z,7.60
2018-12-20T19:49:23.741Z,7.60
2018-12-20T19:51:51.240Z,7.60
2018-12-20T19:54:18.740Z,7.60
2018-12-20T19:56:46.193Z,7.60
2018-12-20T19:59:13.699Z,7.50
2018-12-20T20:01:41.230Z,7.50
2018-12-20T20:04:08.743Z,7.50
2018-12-20T20:06:36.537Z,7.50
2018-12-20T20:09:06.466Z,7.50
2018-12-20T20:11:34.082Z,7.50
2018-12-20T20:14:01.608Z,7.40
2018-12-20T20:16:29.096Z,7.40
2018-12-20T20:18:56.602Z,7.40
2018-12-20T20:21:24.117Z,7.40
2018-12-20T20:23:51.681Z,7.40
2018-12-20T20:26:19.198Z,7.30
2018-12-20T20:28:46.699Z,7.30
2018-12-20T20:31:14.254Z,7.30
2018-12-20T20:33:41.878Z,7.30
2018-12-20T20:36:09.371Z,7.40
2018-12-20T20:38:36.971Z,7.40
2018-12-20T20:41:04.474Z,7.40
2018-12-20T20:43:32.074Z,7.40
2018-12-20T20:45:59.662Z,7.40
2018-12-20T20:48:27.108Z,7.50
2018-12-20T20:50:54.750Z,7.50
2018-12-20T20:53:22.373Z,7.60
2018-12-20T20:55:49.865Z,7.50
2018-12-20T20:58:17.472Z,7.60
2018-12-20T21:00:44.979Z,7.60
2018-12-20T21:03:12.589Z,7.60
2018-12-20T21:05:43.112Z,7.60
2018-12-20T21:08:10.606Z,7.70
2018-12-20T21:10:38.105Z,7.70
2018-12-20T21:13:05.600Z,7.70
2018-12-20T21:15:33.111Z,7.70
2018-12-20T21:18:00.656Z,7.70
2018-12-20T21:20:30.825Z,7.70
2018-12-20T21:22:57.902Z,7.70
2018-12-20T21:25:25.389Z,7.70
2018-12-20T21:27:53.093Z,7.70
2018-12-20T21:30:20.647Z,7.80
2018-12-20T21:32:48.223Z,7.80
2018-12-20T21:35:15.764Z,7.80
2018-12-20T21:37:43.313Z,7.80
2018-12-20T21:40:10.864Z,7.80
2018-12-20T21:42:38.523Z,7.80
2018-12-20T21:45:07.661Z,7.80
2018-12-20T21:47:36.555Z,7.80
2018-12-20T21:50:05.781Z,7.90
2018-12-20T21:52:33.343Z,7.90
2018-12-20T21:55:00.865Z,7.90
2018-12-20T21:57:28.358Z,7.90
2018-12-20T22:00:01.164Z,7.90
2018-12-20T22:02:25.249Z,7.90
2018-12-20T22:04:52.959Z,7.90
2018-12-20T22:07:20.362Z,7.90
2018-12-20T22:09:47.877Z,7.80
2018-12-20T22:12:16.558Z,7.90
2018-12-20T22:14:44.243Z,7.80
2018-12-20T22:17:11.933Z,7.80
2018-12-20T22:19:39.339Z,7.80
2018-12-20T22:22:06.821Z,7.80
2018-12-20T22:27:44.053Z,7.70
2018-12-20T22:30:11.546Z,7.70
2018-12-20T22:32:39.042Z,7.70
2018-12-20T22:35:06.690Z,7.70
2018-12-20T22:37:34.134Z,7.70
2018-12-20T22:40:01.655Z,7.70
2018-12-20T22:42:30.294Z,7.80
2018-12-20T22:44:57.777Z,7.80
2018-12-20T22:47:25.244Z,7.80
2018-12-20T22:49:52.636Z,7.80
2018-12-20T22:52:20.110Z,7.80
2018-12-20T22:54:47.747Z,7.80
2018-12-20T22:57:15.188Z,7.80
2018-12-20T22:59:42.644Z,7.80
2018-12-20T23:02:17.889Z,7.80
2018-12-20T23:04:46.715Z,7.80
2018-12-20T23:07:14.220Z,7.80
2018-12-20T23:09:41.712Z,7.80
2018-12-20T23:12:09.222Z,7.80
2018-12-20T23:14:37.635Z,7.80
2018-12-20T23:17:05.080Z,7.80
2018-12-20T23:19:32.496Z,7.80
2018-12-20T23:22:00.146Z,7.80
2018-12-20T23:24:27.690Z,7.80
2018-12-20T23:26:55.192Z,7.90
2018-12-20T23:29:22.733Z,7.90
2018-12-20T23:31:50.219Z,7.90
2018-12-20T23:34:17.800Z,7.90
2018-12-20T23:36:45.324Z,7.90
2018-12-20T23:39:12.980Z,8.00
2018-12-20T23:41:40.596Z,8.00
2018-12-20T23:44:08.177Z,8.00
2018-12-20T23:46:35.750Z,8.00
2018-12-20T23:49:03.342Z,8.00
2018-12-20T23:51:30.777Z,8.00
2018-12-20T23:54:01.336Z,8.00
2018-12-20T23:56:28.922Z,8.00
2018-12-20T23:58:56.447Z,8.00
